Time;durP1;ratioP1;P1;durP2;ratioP2;P2;SDS_P1;SDS_P2;PMS_P1;PMS_P2;Temp;Humidity;BMP_temperature;BMP_pressure;BME280_temperature;BME280_humidity;BME280_pressure;Samples;Min_cycle;Max_cycle;Signal;HPM_P1;HPM_P2
2021/05/28 00:01:54;;;;;;;16.30;12.43;;;10.90;99.90;;;;;;5014663;28;20399;-68
2021/05/28 00:04:20;;;;;;;17.57;13.97;;;10.80;99.90;;;;;;5033016;28;20267;-68
2021/05/28 00:06:45;;;;;;;17.50;12.93;;;10.80;99.90;;;;;;5034333;28;20164;-68
2021/05/28 00:09:11;;;;;;;14.10;12.70;;;10.90;99.90;;;;;;5024706;28;20714;-68
2021/05/28 00:11:38;;;;;;;18.73;12.77;;;10.90;99.90;;;;;;5019484;28;20545;-68
2021/05/28 00:14:03;;;;;;;14.97;12.40;;;10.90;99.90;;;;;;5034053;28;20193;-68
2021/05/28 00:16:29;;;;;;;16.47;10.90;;;10.90;99.90;;;;;;5034030;28;20756;-68
2021/05/28 00:18:55;;;;;;;14.93;10.17;;;10.90;99.90;;;;;;5049526;28;20247;-68
2021/05/28 00:21:20;;;;;;;15.47;10.17;;;10.90;99.90;;;;;;5053808;28;20217;-68
2021/05/28 00:23:46;;;;;;;20.00;10.17;;;10.90;99.90;;;;;;5053868;28;20203;-68
2021/05/28 00:26:12;;;;;;;15.17;9.37;;;10.90;99.90;;;;;;5041473;28;20186;-68
2021/05/28 00:28:38;;;;;;;13.20;8.43;;;10.90;99.90;;;;;;5033830;28;20540;-68
2021/05/28 00:31:03;;;;;;;11.90;8.97;;;10.90;99.90;;;;;;5033907;28;20168;-68
2021/05/28 00:33:29;;;;;;;10.50;8.93;;;10.90;99.90;;;;;;5033894;28;20218;-68
2021/05/28 00:35:54;;;;;;;12.73;9.33;;;10.90;99.90;;;;;;5033753;28;20165;-68
2021/05/28 00:38:20;;;;;;;13.97;8.50;;;10.90;99.90;;;;;;5033558;28;20164;-68
2021/05/28 00:40:45;;;;;;;11.70;8.60;;;10.90;99.90;;;;;;5033332;28;20164;-68
2021/05/28 00:43:11;;;;;;;12.10;8.93;;;10.90;99.90;;;;;;5024081;28;20173;-68
2021/05/28 00:45:36;;;;;;;12.40;9.20;;;11.00;99.90;;;;;;5030430;28;20537;-68
2021/05/28 00:48:02;;;;;;;14.97;8.77;;;11.00;99.90;;;;;;5053474;28;20177;-68
2021/05/28 00:50:29;;;;;;;9.33;7.57;;;11.00;99.90;;;;;;5053343;28;20158;-68
2021/05/28 00:52:57;;;;;;;14.97;8.07;;;10.90;99.90;;;;;;5053037;28;20631;-68
2021/05/28 00:55:24;;;;;;;15.47;7.93;;;10.90;99.90;;;;;;5053162;28;20440;-68
2021/05/28 00:57:52;;;;;;;7.80;7.00;;;10.90;99.90;;;;;;5053101;28;20408;-69
2021/05/28 01:00:18;;;;;;;10.60;8.10;;;10.80;99.90;;;;;;5032297;28;20508;-69
2021/05/28 01:02:44;;;;;;;13.53;7.90;;;10.80;99.90;;;;;;5013482;28;20395;-69
2021/05/28 01:05:10;;;;;;;12.17;9.07;;;10.80;99.90;;;;;;5023175;28;20462;-69
2021/05/28 01:07:35;;;;;;;18.33;10.90;;;10.80;99.90;;;;;;5033317;28;20202;-69
2021/05/28 01:10:02;;;;;;;11.83;9.80;;;10.80;99.90;;;;;;5033113;28;20576;-69
2021/05/28 01:12:28;;;;;;;15.20;10.93;;;10.80;99.90;;;;;;5033015;28;20565;-69
2021/05/28 01:14:54;;;;;;;25.40;11.93;;;10.80;99.90;;;;;;5033709;28;20576;-69
2021/05/28 01:17:21;;;;;;;13.60;10.43;;;10.70;99.90;;;;;;5022127;28;20510;-68
2021/05/28 01:19:46;;;;;;;16.90;11.37;;;10.70;99.90;;;;;;5013547;28;20210;-69
2021/05/28 01:22:12;;;;;;;24.03;17.23;;;10.70;99.90;;;;;;5013182;28;20494;-68
2021/05/28 01:24:37;;;;;;;27.43;17.87;;;10.80;99.90;;;;;;5014324;28;20164;-69
2021/05/28 01:27:03;;;;;;;26.80;16.50;;;10.80;99.90;;;;;;5052812;28;20237;-69
2021/05/28 01:29:29;;;;;;;30.47;20.10;;;10.80;99.90;;;;;;5052334;28;20619;-69
2021/05/28 01:31:54;;;;;;;26.20;16.07;;;10.80;99.90;;;;;;5052854;28;20397;-69
2021/05/28 01:34:20;;;;;;;18.23;10.37;;;10.80;99.90;;;;;;5030640;28;20215;-69
2021/05/28 01:36:46;;;;;;;12.10;9.17;;;10.80;99.90;;;;;;5013099;28;20160;-69
2021/05/28 01:39:11;;;;;;;14.80;8.70;;;10.80;99.90;;;;;;5013029;28;20201;-69
2021/05/28 01:41:37;;;;;;;15.10;9.83;;;10.80;99.90;;;;;;5013009;28;20160;-69
2021/05/28 01:44:11;;;;;;;16.37;10.47;;;10.80;99.90;;;;;;5016626;28;20187;-69
2021/05/28 01:46:36;;;;;;;14.57;10.10;;;10.80;99.90;;;;;;5032797;28;20189;-69
2021/05/28 01:49:03;;;;;;;22.50;13.70;;;10.80;99.90;;;;;;5032876;28;20433;-69
2021/05/28 01:51:30;;;;;;;13.67;11.80;;;10.70;99.90;;;;;;5020893;28;20418;-69
2021/05/28 01:53:55;;;;;;;22.00;16.10;;;10.70;99.90;;;;;;5012766;28;20458;-69
2021/05/28 01:56:21;;;;;;;20.70;13.77;;;10.80;99.90;;;;;;5013002;28;20406;-69
2021/05/28 01:58:47;;;;;;;16.30;11.63;;;10.70;99.90;;;;;;5047724;28;20602;-68
2021/05/28 02:01:13;;;;;;;15.43;11.53;;;10.70;99.90;;;;;;5052509;28;20393;-69
2021/05/28 02:03:38;;;;;;;15.13;11.83;;;10.70;99.90;;;;;;5052807;28;20532;-69
2021/05/28 02:06:04;;;;;;;13.07;10.77;;;10.80;99.90;;;;;;5052610;28;20203;-69
2021/05/28 02:08:29;;;;;;;14.07;10.27;;;10.80;99.90;;;;;;5027359;28;20246;-69
2021/05/28 02:10:55;;;;;;;13.43;10.30;;;10.80;99.90;;;;;;5012678;28;20642;-69
2021/05/28 02:13:20;;;;;;;16.50;11.10;;;10.80;99.90;;;;;;5042217;28;20206;-69
2021/05/28 02:15:46;;;;;;;12.13;10.83;;;10.80;99.90;;;;;;5032428;28;20163;-69
2021/05/28 02:18:12;;;;;;;11.50;10.30;;;10.80;99.90;;;;;;5032499;28;20625;-69
2021/05/28 02:20:37;;;;;;;13.30;10.77;;;10.80;99.90;;;;;;5032875;28;20167;-69
2021/05/28 02:23:03;;;;;;;12.83;9.60;;;10.80;99.90;;;;;;5032284;28;20165;-69
2021/05/28 02:25:29;;;;;;;12.67;9.63;;;10.90;99.90;;;;;;5020151;28;20181;-69
2021/05/28 02:27:55;;;;;;;14.77;13.30;;;10.90;99.90;;;;;;5027551;28;20511;-71
2021/05/28 02:30:20;;;;;;;14.00;12.80;;;10.80;99.90;;;;;;5032318;28;20388;-71
2021/05/28 02:32:46;;;;;;;15.77;14.10;;;10.80;99.90;;;;;;5032403;28;20165;-71
2021/05/28 02:35:12;;;;;;;16.30;14.20;;;10.80;99.90;;;;;;5032298;28;20198;-72
2021/05/28 02:37:38;;;;;;;15.70;14.07;;;10.80;99.90;;;;;;5032224;28;20186;-72
2021/05/28 02:40:06;;;;;;;21.00;17.73;;;10.80;99.90;;;;;;5032102;28;20447;-71
2021/05/28 02:42:32;;;;;;;22.47;17.70;;;10.80;99.90;;;;;;5023087;28;20435;-72
2021/05/28 02:44:57;;;;;;;20.73;18.60;;;10.80;99.90;;;;;;5016258;28;20425;-72
2021/05/28 02:47:23;;;;;;;21.37;18.80;;;10.80;99.90;;;;;;5016078;28;20888;-72
2021/05/28 02:49:49;;;;;;;19.97;17.10;;;10.80;99.90;;;;;;5015904;28;20160;-72
2021/05/28 02:52:15;;;;;;;20.83;18.07;;;10.80;99.90;;;;;;5015843;28;20290;-71
2021/05/28 02:54:42;;;;;;;19.63;17.30;;;10.80;99.90;;;;;;5050158;28;20901;-69
2021/05/28 02:57:08;;;;;;;21.00;18.70;;;10.80;99.90;;;;;;5055413;28;20163;-69
2021/05/28 02:59:33;;;;;;;22.83;18.57;;;10.80;99.90;;;;;;5029817;28;20443;-69
2021/05/28 03:01:59;;;;;;;24.10;20.83;;;10.80;99.90;;;;;;5021717;28;20727;-69
2021/05/28 03:04:25;;;;;;;29.13;23.33;;;10.80;99.90;;;;;;5035441;28;20198;-69
2021/05/28 03:06:50;;;;;;;31.03;22.13;;;10.80;99.90;;;;;;5035339;28;20165;-69
2021/05/28 03:09:16;;;;;;;25.80;22.03;;;10.80;99.90;;;;;;5050646;28;20172;-69
2021/05/28 03:11:42;;;;;;;26.53;22.27;;;10.80;99.90;;;;;;5049113;28;20256;-69
2021/05/28 03:14:07;;;;;;;29.17;22.70;;;10.80;99.90;;;;;;5035116;28;20191;-69
2021/05/28 03:16:33;;;;;;;26.47;21.43;;;10.80;99.90;;;;;;5034424;28;20179;-68
2021/05/28 03:19:02;;;;;;;28.67;23.27;;;10.70;99.90;;;;;;5035180;28;20225;-69
2021/05/28 03:24:06;;;;;;;29.03;25.93;;;10.70;99.90;;;;;;5090231;28;20512;-69
2021/05/28 03:26:31;;;;;;;28.87;22.63;;;10.70;99.90;;;;;;5090460;28;20418;-69
2021/05/28 03:28:58;;;;;;;26.90;24.10;;;10.60;99.90;;;;;;5090446;28;20393;-69
2021/05/28 03:31:25;;;;;;;28.40;23.27;;;10.60;99.90;;;;;;5090364;28;20193;-69
2021/05/28 03:33:50;;;;;;;30.07;23.70;;;10.60;99.90;;;;;;5075177;28;20401;-69
2021/05/28 03:36:17;;;;;;;24.87;22.17;;;10.60;99.90;;;;;;5075417;28;20827;-69
2021/05/28 03:38:44;;;;;;;28.23;23.73;;;10.60;99.90;;;;;;5090085;28;20531;-69
2021/05/28 03:41:10;;;;;;;30.87;23.70;;;10.60;99.90;;;;;;5090135;28;20471;-69
2021/05/28 03:43:36;;;;;;;31.40;23.30;;;10.60;99.90;;;;;;5090017;28;20451;-69
2021/05/28 03:46:03;;;;;;;26.60;22.97;;;10.60;99.90;;;;;;5090040;28;20483;-69
2021/05/28 03:48:29;;;;;;;27.00;22.23;;;10.60;99.90;;;;;;5089938;28;20629;-69
2021/05/28 03:50:55;;;;;;;31.53;23.60;;;10.60;99.90;;;;;;5078798;28;20413;-69
2021/05/28 03:53:20;;;;;;;25.57;22.77;;;10.60;99.90;;;;;;5089825;28;20164;-69
2021/05/28 03:55:46;;;;;;;28.40;23.17;;;10.60;99.90;;;;;;5089824;28;20684;-69
2021/05/28 03:58:12;;;;;;;28.20;21.60;;;10.70;99.90;;;;;;5089335;28;20169;-69
2021/05/28 04:00:37;;;;;;;28.87;23.00;;;10.70;99.90;;;;;;5069471;28;20187;-69
2021/05/28 04:03:03;;;;;;;29.77;21.90;;;10.70;99.90;;;;;;5069574;28;20187;-69
2021/05/28 04:05:29;;;;;;;27.60;22.63;;;10.70;99.90;;;;;;5069495;28;20527;-69
2021/05/28 04:07:55;;;;;;;23.37;20.60;;;10.70;99.90;;;;;;5069362;28;20182;-69
2021/05/28 04:10:20;;;;;;;28.40;21.50;;;10.70;99.90;;;;;;5069484;28;20166;-69
2021/05/28 04:12:46;;;;;;;23.83;20.90;;;10.70;99.90;;;;;;5069014;28;20220;-69
2021/05/28 04:15:12;;;;;;;24.50;20.83;;;10.70;99.90;;;;;;5070132;28;20215;-69
2021/05/28 04:17:37;;;;;;;20.93;18.37;;;10.70;99.90;;;;;;5069329;28;20166;-69
2021/05/28 04:20:04;;;;;;;22.00;19.70;;;10.80;99.90;;;;;;5069147;28;20844;-69
2021/05/28 04:22:30;;;;;;;20.60;18.40;;;10.80;99.90;;;;;;5068811;28;20214;-69
2021/05/28 04:24:56;;;;;;;21.10;18.97;;;10.70;99.90;;;;;;5069017;28;20421;-69
2021/05/28 04:27:21;;;;;;;22.73;18.00;;;10.80;99.90;;;;;;5068787;28;20419;-69
2021/05/28 04:29:47;;;;;;;21.67;19.50;;;10.80;99.90;;;;;;5069375;28;20222;-69
2021/05/28 04:32:13;;;;;;;20.73;17.77;;;10.80;99.90;;;;;;5068912;28;20167;-69
2021/05/28 04:34:38;;;;;;;26.40;17.67;;;10.80;99.90;;;;;;5060042;28;20236;-69
2021/05/28 04:37:05;;;;;;;25.30;18.00;;;10.80;99.90;;;;;;5055618;28;20171;-69
2021/05/28 04:39:30;;;;;;;21.13;17.30;;;10.80;99.90;;;;;;5055221;28;20269;-69
2021/05/28 04:41:56;;;;;;;20.70;16.83;;;10.90;99.90;;;;;;5055329;28;20506;-69
2021/05/28 04:44:22;;;;;;;19.50;17.60;;;10.90;99.90;;;;;;5055824;28;20157;-69
2021/05/28 04:46:48;;;;;;;19.07;17.17;;;10.90;99.90;;;;;;5055508;28;20531;-69
2021/05/28 04:49:14;;;;;;;20.53;18.40;;;10.90;99.90;;;;;;5055120;28;20423;-69
2021/05/28 04:51:40;;;;;;;18.47;16.67;;;10.90;99.90;;;;;;5055189;28;20398;-69
2021/05/28 04:54:06;;;;;;;18.40;14.50;;;10.90;99.90;;;;;;5055312;28;20218;-69
2021/05/28 04:56:32;;;;;;;18.23;16.27;;;11.00;99.90;;;;;;5055254;28;20160;-69
2021/05/28 04:58:58;;;;;;;17.70;16.10;;;11.00;99.90;;;;;;5055062;28;20789;-69
2021/05/28 05:01:24;;;;;;;20.40;17.33;;;11.00;99.90;;;;;;5054846;28;20410;-69
2021/05/28 05:03:50;;;;;;;17.33;15.23;;;11.10;99.90;;;;;;5054910;28;20484;-69
2021/05/28 05:06:16;;;;;;;17.63;15.63;;;11.10;99.90;;;;;;5054525;28;20416;-69
2021/05/28 05:08:41;;;;;;;18.77;14.60;;;11.00;99.90;;;;;;5055082;28;20440;-68
2021/05/28 05:11:08;;;;;;;17.13;15.43;;;11.00;99.90;;;;;;5055622;28;20373;-69
2021/05/28 05:13:33;;;;;;;15.50;13.87;;;11.10;99.90;;;;;;5055386;28;20159;-69
2021/05/28 05:15:59;;;;;;;17.83;15.97;;;11.10;99.90;;;;;;5054755;28;20435;-69
2021/05/28 05:18:25;;;;;;;18.57;14.83;;;11.20;99.90;;;;;;5054903;28;20153;-69
2021/05/28 05:20:51;;;;;;;18.77;15.30;;;11.20;99.90;;;;;;5054783;28;20177;-69
2021/05/28 05:23:18;;;;;;;21.33;15.40;;;11.20;99.90;;;;;;5054604;28;20263;-69
2021/05/28 05:25:44;;;;;;;16.53;14.93;;;11.20;99.90;;;;;;5055172;28;20417;-69
2021/05/28 05:28:10;;;;;;;16.90;15.10;;;11.30;99.90;;;;;;5055240;28;20402;-69
2021/05/28 05:30:39;;;;;;;20.27;16.77;;;11.30;99.90;;;;;;5054689;28;20475;-69
2021/05/28 05:33:05;;;;;;;21.10;17.40;;;11.30;99.90;;;;;;5054462;28;20679;-69
2021/05/28 05:35:30;;;;;;;25.07;18.40;;;11.40;99.90;;;;;;5054589;28;20421;-69
2021/05/28 05:37:56;;;;;;;20.03;17.40;;;11.40;99.90;;;;;;5054600;28;20796;-69
2021/05/28 05:40:24;;;;;;;18.30;16.33;;;11.40;99.90;;;;;;5054418;28;20186;-69
2021/05/28 05:42:50;;;;;;;18.13;16.40;;;11.40;99.90;;;;;;5054701;28;20188;-69
2021/05/28 05:45:16;;;;;;;20.60;17.73;;;11.50;99.90;;;;;;5053914;28;20801;-70
2021/05/28 05:47:42;;;;;;;16.83;15.13;;;11.60;99.90;;;;;;5054024;28;20467;-70
2021/05/28 05:50:09;;;;;;;17.37;14.70;;;11.70;99.90;;;;;;5054140;28;20533;-70
2021/05/28 05:52:35;;;;;;;18.70;16.63;;;11.80;99.90;;;;;;5054042;28;20414;-69
2021/05/28 05:55:00;;;;;;;17.63;15.90;;;11.80;99.90;;;;;;5055366;28;20406;-69
2021/05/28 05:57:26;;;;;;;18.57;16.77;;;11.80;99.90;;;;;;5054230;28;20160;-69
2021/05/28 05:59:52;;;;;;;20.20;18.20;;;11.70;99.90;;;;;;5053752;28;20215;-69
2021/05/28 06:02:17;;;;;;;21.13;17.70;;;11.60;99.90;;;;;;5053961;28;20184;-69
2021/05/28 06:04:43;;;;;;;21.03;18.83;;;11.60;99.90;;;;;;5054029;28;20161;-69
2021/05/28 06:07:09;;;;;;;20.77;18.47;;;11.60;99.90;;;;;;5053838;28;20414;-69
2021/05/28 06:09:34;;;;;;;19.10;16.43;;;11.60;99.90;;;;;;5054436;28;20251;-69
2021/05/28 06:12:00;;;;;;;17.30;14.90;;;11.60;99.90;;;;;;5054083;28;20187;-70
2021/05/28 06:14:26;;;;;;;17.40;15.57;;;11.60;99.90;;;;;;5053766;28;20152;-69
2021/05/28 06:16:52;;;;;;;17.43;14.40;;;11.70;99.90;;;;;;5053774;28;20160;-70
2021/05/28 06:19:17;;;;;;;16.13;14.40;;;11.70;99.90;;;;;;5053760;28;20959;-69
2021/05/28 06:21:43;;;;;;;14.87;13.37;;;11.70;99.90;;;;;;5054158;28;20161;-69
2021/05/28 06:24:09;;;;;;;16.90;14.53;;;11.70;99.90;;;;;;5042050;28;20246;-69
2021/05/28 06:26:35;;;;;;;15.67;13.20;;;11.80;99.90;;;;;;5034264;28;20157;-69
2021/05/28 06:29:02;;;;;;;15.43;13.93;;;11.90;99.90;;;;;;5033712;28;20404;-69
2021/05/28 06:31:29;;;;;;;15.43;13.93;;;12.00;99.90;;;;;;5040418;28;20180;-69
2021/05/28 06:33:55;;;;;;;14.97;13.03;;;12.00;99.90;;;;;;5053837;28;20399;-69
2021/05/28 06:36:20;;;;;;;16.93;13.67;;;12.00;99.90;;;;;;5052661;28;20411;-69
2021/05/28 06:38:46;;;;;;;15.40;13.67;;;12.00;99.90;;;;;;5053701;28;20395;-69
2021/05/28 06:41:11;;;;;;;17.40;13.63;;;12.00;99.90;;;;;;5053663;28;20179;-69
2021/05/28 06:43:37;;;;;;;14.93;13.33;;;12.00;99.90;;;;;;5053138;28;20211;-69
2021/05/28 06:46:02;;;;;;;16.20;12.30;;;12.10;99.90;;;;;;5053236;28;20159;-69
2021/05/28 06:48:28;;;;;;;13.10;10.70;;;12.10;99.90;;;;;;5052882;28;20233;-69
2021/05/28 06:50:54;;;;;;;11.63;10.53;;;12.20;99.90;;;;;;5053325;28;20160;-69
2021/05/28 06:53:19;;;;;;;13.97;9.83;;;12.30;99.90;;;;;;5052521;28;20187;-69
2021/05/28 06:55:45;;;;;;;11.67;9.83;;;12.30;99.90;;;;;;5040410;28;20207;-69
2021/05/28 06:58:11;;;;;;;10.13;9.13;;;12.40;99.90;;;;;;5050872;28;20187;-69
2021/05/28 07:00:37;;;;;;;11.40;10.20;;;12.40;99.90;;;;;;5052954;28;20179;-69
2021/05/28 07:03:03;;;;;;;16.13;9.97;;;12.50;99.90;;;;;;5052199;28;20449;-69
2021/05/28 07:05:28;;;;;;;12.80;10.63;;;12.50;99.90;;;;;;5053061;28;20415;-69
2021/05/28 07:07:55;;;;;;;13.57;9.57;;;12.60;99.90;;;;;;5053078;28;20799;-69
2021/05/28 07:10:22;;;;;;;12.90;11.60;;;12.70;99.90;;;;;;5051544;28;20211;-70
2021/05/28 07:12:49;;;;;;;12.27;11.00;;;12.70;99.90;;;;;;5051891;28;20487;-70
2021/05/28 07:15:15;;;;;;;13.90;9.83;;;12.90;99.90;;;;;;5052379;28;20911;-70
2021/05/28 07:17:43;;;;;;;11.97;9.23;;;13.00;99.90;;;;;;5052215;28;20439;-70
2021/05/28 07:20:09;;;;;;;10.73;9.27;;;13.20;99.90;;;;;;5041757;28;20897;-70
2021/05/28 07:22:35;;;;;;;10.30;8.67;;;13.50;99.90;;;;;;5032717;28;20470;-70
2021/05/28 07:25:01;;;;;;;8.43;7.30;;;13.70;99.90;;;;;;5033115;28;20402;-70
2021/05/28 07:27:26;;;;;;;9.03;7.50;;;14.20;99.90;;;;;;5032888;28;20238;-70
2021/05/28 07:29:52;;;;;;;8.00;7.30;;;14.80;99.90;;;;;;5032807;28;20440;-70
2021/05/28 07:32:18;;;;;;;8.50;7.23;;;15.30;99.90;;;;;;5051940;28;20190;-70
2021/05/28 07:34:43;;;;;;;9.33;7.90;;;15.70;99.90;;;;;;5052657;28;20180;-70
2021/05/28 07:37:09;;;;;;;8.60;7.70;;;16.00;99.90;;;;;;5052587;28;20176;-70
2021/05/28 07:39:35;;;;;;;10.90;7.97;;;16.00;99.90;;;;;;5052885;28;20152;-70
2021/05/28 07:42:01;;;;;;;10.40;7.00;;;16.10;99.90;;;;;;5052490;28;20164;-70
2021/05/28 07:44:28;;;;;;;7.70;6.70;;;16.10;99.90;;;;;;5052556;28;20449;-69
2021/05/28 07:46:53;;;;;;;14.20;7.20;;;16.20;99.90;;;;;;5052600;28;20398;-69
2021/05/28 07:49:19;;;;;;;8.93;6.80;;;16.20;99.90;;;;;;5052499;28;20572;-69
2021/05/28 07:51:45;;;;;;;9.60;6.50;;;16.10;99.90;;;;;;5053174;28;20298;-69
2021/05/28 07:54:11;;;;;;;8.60;6.83;;;16.00;99.90;;;;;;5052498;28;20266;-69
2021/05/28 07:56:37;;;;;;;7.80;6.00;;;15.90;99.90;;;;;;5052465;28;20399;-69
2021/05/28 07:59:04;;;;;;;8.40;6.43;;;15.80;99.90;;;;;;5052083;28;20192;-69
2021/05/28 08:01:30;;;;;;;9.20;6.53;;;15.60;99.90;;;;;;5052502;28;20473;-69
2021/05/28 08:03:56;;;;;;;12.23;5.80;;;15.90;99.90;;;;;;5051642;28;20454;-69
2021/05/28 08:06:23;;;;;;;10.57;4.80;;;17.00;99.90;;;;;;5052386;28;20417;-69
2021/05/28 08:08:49;;;;;;;7.73;4.60;;;18.40;99.90;;;;;;5052727;28;20387;-70
2021/05/28 08:11:14;;;;;;;4.83;3.60;;;19.90;99.90;;;;;;5056021;28;20470;-69
2021/05/28 08:13:40;;;;;;;2.70;2.50;;;21.70;94.50;;;;;;5056192;28;20298;-70
2021/05/28 08:16:06;;;;;;;2.70;2.40;;;23.40;76.40;;;;;;5056007;28;20168;-71
2021/05/28 08:18:31;;;;;;;4.00;2.50;;;24.80;63.30;;;;;;5055910;28;20171;-71
2021/05/28 08:20:58;;;;;;;6.57;2.50;;;25.90;55.20;;;;;;5056130;28;20884;-71
2021/05/28 08:23:24;;;;;;;6.93;2.53;;;27.20;54.20;;;;;;5055684;28;20212;-71
2021/05/28 08:25:50;;;;;;;2.60;2.37;;;28.40;50.40;;;;;;5055734;28;20899;-71
2021/05/28 08:28:17;;;;;;;2.30;2.10;;;28.90;46.90;;;;;;5056134;28;20160;-71
2021/05/28 08:30:43;;;;;;;2.20;2.10;;;28.90;44.30;;;;;;5055825;28;20149;-70
2021/05/28 08:33:12;;;;;;;2.40;2.20;;;28.00;44.90;;;;;;5054742;28;20444;-71
2021/05/28 08:35:38;;;;;;;5.03;2.40;;;27.00;46.10;;;;;;5055969;28;20476;-70
2021/05/28 08:38:04;;;;;;;3.60;1.90;;;26.20;47.60;;;;;;5055617;28;20873;-70
2021/05/28 08:40:32;;;;;;;4.60;3.00;;;26.20;49.30;;;;;;5053224;28;20433;-70
2021/05/28 08:43:00;;;;;;;2.87;2.20;;;27.10;47.30;;;;;;5055762;28;20683;-70
2021/05/28 08:45:28;;;;;;;3.30;2.50;;;28.00;44.20;;;;;;5055854;28;20581;-71
2021/05/28 08:47:53;;;;;;;2.83;2.10;;;27.60;44.30;;;;;;5054814;28;20411;-71
2021/05/28 08:50:25;;;;;;;2.37;2.17;;;27.10;46.10;;;;;;5055584;28;20384;-72
2021/05/28 08:52:51;;;;;;;2.87;1.90;;;27.70;45.70;;;;;;5036454;28;20169;-71
2021/05/28 08:55:17;;;;;;;3.83;2.33;;;28.90;43.80;;;;;;5037809;28;20446;-71
2021/05/28 08:57:43;;;;;;;5.40;2.40;;;30.00;41.80;;;;;;5055636;28;20506;-70
2021/05/28 09:00:09;;;;;;;2.40;2.20;;;30.90;41.50;;;;;;5055228;28;20463;-70
2021/05/28 09:05:15;;;;;;;1.97;1.87;;;31.80;38.20;;;;;;5070059;28;20975;-72
2021/05/28 09:07:53;;;;;;;3.83;2.50;;;32.80;34.30;;;;;;5070398;28;20790;-72
2021/05/28 09:13:14;;;;;;;2.80;1.83;;;33.00;33.60;;;;;;5069505;28;20508;-72
2021/05/28 09:15:43;;;;;;;5.20;2.60;;;33.20;33.10;;;;;;5070621;28;20428;-71
2021/05/28 09:18:09;;;;;;;3.07;2.80;;;33.20;32.80;;;;;;5065520;28;20430;-71
2021/05/28 09:20:35;;;;;;;2.53;2.23;;;32.60;32.60;;;;;;5050321;28;20415;-71
2021/05/28 09:23:19;;;;;;;4.53;2.70;;;32.30;34.20;;;;;;5050467;28;20569;-71
2021/05/28 09:26:03;;;;;;;4.13;3.53;;;32.00;33.00;;;;;;5050302;28;20422;-71
2021/05/28 09:28:34;;;;;;;7.63;4.93;;;31.90;37.30;;;;;;5050164;28;20383;-71
2021/05/28 09:31:03;;;;;;;3.67;3.00;;;31.60;36.50;;;;;;5050198;28;20557;-71
2021/05/28 09:33:34;;;;;;;2.60;2.40;;;31.10;35.80;;;;;;5050132;28;20395;-71
2021/05/28 09:36:10;;;;;;;3.13;2.83;;;30.60;36.70;;;;;;5049937;28;20486;-71
2021/05/28 09:38:37;;;;;;;4.23;2.87;;;29.90;37.00;;;;;;5049704;28;20453;-71
2021/05/28 09:41:04;;;;;;;4.57;3.57;;;29.10;38.70;;;;;;5049783;28;20774;-71
2021/05/28 09:43:30;;;;;;;4.57;3.77;;;28.20;40.00;;;;;;5049241;28;20411;-70
2021/05/28 09:45:56;;;;;;;4.50;4.10;;;27.20;43.70;;;;;;5049232;28;20464;-70
2021/05/28 09:48:28;;;;;;;7.37;5.93;;;26.60;45.00;;;;;;5051057;28;20184;-71
2021/05/28 09:56:28;;;;;;;6.47;4.00;;;26.20;45.10;;;;;;5070450;28;20516;-70
2021/05/28 09:58:55;;;;;;;7.23;4.20;;;25.60;45.50;;;;;;5069319;28;20429;-70
2021/05/28 10:01:21;;;;;;;5.07;4.20;;;25.40;46.60;;;;;;5061275;28;20762;-71
2021/05/28 10:06:42;;;;;;;6.73;3.80;;;25.00;46.60;;;;;;5070047;28;20512;-70
2021/05/28 10:09:10;;;;;;;4.43;4.03;;;24.90;47.10;;;;;;5069946;28;20504;-71
2021/05/28 10:11:38;;;;;;;4.40;3.70;;;24.80;46.40;;;;;;5069876;28;20202;-71
2021/05/28 10:14:07;;;;;;;4.47;3.27;;;24.60;47.30;;;;;;5070100;28;20398;-71
2021/05/28 10:16:32;;;;;;;4.70;4.00;;;24.20;47.20;;;;;;5070296;28;20429;-71
2021/05/28 10:18:59;;;;;;;5.20;3.90;;;23.80;47.90;;;;;;5069794;28;20822;-71
2021/05/28 10:21:26;;;;;;;4.20;3.80;;;23.30;49.10;;;;;;5065231;28;20199;-71
2021/05/28 10:23:51;;;;;;;3.87;3.47;;;23.00;49.60;;;;;;5070044;28;20390;-70
2021/05/28 10:26:32;;;;;;;3.53;3.23;;;22.70;50.60;;;;;;5074152;28;20441;-70
2021/05/28 10:28:58;;;;;;;3.83;3.20;;;22.30;48.70;;;;;;5070350;28;20159;-70
2021/05/28 10:31:59;;;;;;;5.10;3.10;;;22.00;49.10;;;;;;5070416;28;20477;-70
2021/05/28 10:34:28;;;;;;;8.87;2.90;;;21.70;50.30;;;;;;5073082;28;20174;-70
2021/05/28 10:36:56;;;;;;;5.57;3.27;;;21.30;50.20;;;;;;5077140;28;20418;-70
2021/05/28 10:39:23;;;;;;;3.67;3.00;;;20.90;50.30;;;;;;5050451;28;20783;-70
2021/05/28 10:41:54;;;;;;;3.80;3.33;;;20.60;50.80;;;;;;5051072;28;20395;-71
2021/05/28 10:44:23;;;;;;;4.30;3.30;;;20.30;52.10;;;;;;5069604;28;20410;-71
2021/05/28 10:52:36;;;;;;;4.20;3.80;;;19.70;52.70;;;;;;5070494;28;20909;-69
2021/05/28 10:55:09;;;;;;;5.37;4.00;;;19.70;55.00;;;;;;5061945;28;20413;-69
2021/05/28 10:57:48;;;;;;;4.13;3.73;;;19.50;54.40;;;;;;5050590;28;20478;-69
2021/05/28 11:00:22;;;;;;;5.93;4.03;;;19.40;55.00;;;;;;5050545;28;20504;-70
2021/05/28 11:05:47;;;;;;;4.30;3.77;;;19.50;55.30;;;;;;5131430;27;20523;-71
2021/05/28 11:08:34;;;;;;;6.33;3.63;;;19.70;55.70;;;;;;5131784;28;20455;-70
2021/05/28 11:11:00;;;;;;;4.50;3.77;;;19.70;53.90;;;;;;5115976;28;20383;-70
2021/05/28 11:13:26;;;;;;;4.40;3.40;;;19.50;54.20;;;;;;5110069;28;20932;-70
2021/05/28 11:15:59;;;;;;;3.73;3.30;;;19.50;54.70;;;;;;5110757;28;20666;-70
2021/05/28 11:18:33;;;;;;;6.00;3.70;;;19.50;54.20;;;;;;5107552;28;20579;-70
2021/05/28 11:21:15;;;;;;;4.30;3.30;;;19.60;54.50;;;;;;5110412;28;20411;-70
2021/05/28 11:23:43;;;;;;;4.87;4.07;;;19.50;55.20;;;;;;5108203;28;20451;-70
2021/05/28 11:26:15;;;;;;;5.47;4.40;;;19.40;55.80;;;;;;5110667;28;20773;-70
2021/05/28 11:28:58;;;;;;;6.47;4.70;;;19.30;55.60;;;;;;5110699;28;20445;-70
2021/05/28 11:31:28;;;;;;;4.30;3.73;;;19.20;55.80;;;;;;5105243;28;20403;-70
2021/05/28 11:33:56;;;;;;;4.40;3.30;;;19.10;56.50;;;;;;5109316;28;20444;-70
2021/05/28 11:39:05;;;;;;;5.20;4.17;;;19.00;57.00;;;;;;5110515;27;20933;-70
2021/05/28 11:41:52;;;;;;;6.67;3.40;;;18.90;55.80;;;;;;5110827;28;20411;-70
2021/05/28 11:44:20;;;;;;;4.57;4.13;;;18.70;54.90;;;;;;5076296;28;20388;-70
2021/05/28 11:46:49;;;;;;;5.00;4.10;;;18.70;56.80;;;;;;5091021;28;20405;-70
2021/05/28 11:49:17;;;;;;;4.27;3.20;;;18.60;56.80;;;;;;5090685;28;20881;-70
2021/05/28 11:51:44;;;;;;;5.93;3.50;;;18.60;55.90;;;;;;5090326;28;20443;-70
2021/05/28 11:54:31;;;;;;;5.13;3.70;;;18.50;56.70;;;;;;5090206;28;20395;-70
2021/05/28 11:57:03;;;;;;;6.33;3.50;;;18.40;56.90;;;;;;5080357;28;20543;-70
2021/05/28 11:59:50;;;;;;;5.53;4.47;;;18.30;57.10;;;;;;5111250;28;20424;-70
2021/05/28 12:02:33;;;;;;;5.10;4.60;;;18.20;56.30;;;;;;5107630;28;20405;-70
2021/05/28 12:04:59;;;;;;;6.50;4.07;;;18.10;57.40;;;;;;5090188;28;20387;-70
2021/05/28 12:07:32;;;;;;;6.47;4.30;;;18.00;58.00;;;;;;5090316;28;20405;-70
2021/05/28 12:10:03;;;;;;;6.30;4.20;;;17.90;57.00;;;;;;5089849;28;20449;-69
2021/05/28 12:16:01;;;;;;;4.00;3.60;;;17.80;56.90;;;;;;5111105;27;20506;-69
2021/05/28 12:18:28;;;;;;;8.33;4.13;;;17.80;57.80;;;;;;5110810;28;20418;-70
2021/05/28 12:20:58;;;;;;;4.10;3.63;;;17.80;57.40;;;;;;5095165;28;20424;-70
2021/05/28 12:23:26;;;;;;;4.70;4.00;;;17.90;58.60;;;;;;5090371;28;20394;-69
2021/05/28 12:25:57;;;;;;;4.50;4.10;;;17.90;58.10;;;;;;5090870;28;20385;-69
2021/05/28 12:31:18;;;;;;;8.07;4.17;;;18.00;57.20;;;;;;5110837;27;20498;-70
2021/05/28 12:33:55;;;;;;;4.30;3.50;;;18.10;57.00;;;;;;5110697;28;20472;-70
2021/05/28 12:39:15;;;;;;;3.83;3.37;;;18.10;56.90;;;;;;5070267;28;20519;-69
2021/05/28 12:41:44;;;;;;;3.33;2.73;;;18.10;54.90;;;;;;5070917;28;20429;-69
2021/05/28 12:44:15;;;;;;;4.20;2.90;;;18.10;54.70;;;;;;5070698;28;20771;-69
2021/05/28 12:46:40;;;;;;;4.40;3.37;;;17.90;52.30;;;;;;5070134;28;20425;-70
2021/05/28 12:49:08;;;;;;;5.83;3.07;;;17.80;54.20;;;;;;5070169;28;20393;-69
2021/05/28 12:51:49;;;;;;;2.60;2.27;;;17.70;53.60;;;;;;5069247;28;20653;-69
2021/05/28 12:56:54;;;;;;;2.90;2.60;;;17.60;52.20;;;;;;5131967;27;20504;-69
2021/05/28 12:59:25;;;;;;;2.73;2.37;;;17.30;51.60;;;;;;5131300;28;20778;-69
2021/05/28 13:01:53;;;;;;;4.60;3.30;;;17.20;52.20;;;;;;5131407;28;20470;-69
2021/05/28 13:04:20;;;;;;;3.23;2.93;;;17.10;52.50;;;;;;5116347;28;20416;-69
2021/05/28 13:06:48;;;;;;;2.90;2.23;;;17.10;53.40;;;;;;5110758;28;20384;-69
2021/05/28 13:12:10;;;;;;;4.90;2.53;;;17.00;55.90;;;;;;5063139;28;20523;-70
2021/05/28 13:17:31;;;;;;;5.00;3.43;;;17.00;57.10;;;;;;5070427;28;20958;-70
2021/05/28 13:19:59;;;;;;;4.20;3.40;;;17.00;53.90;;;;;;5050451;28;20399;-69
2021/05/28 13:22:47;;;;;;;4.17;3.33;;;17.10;54.00;;;;;;5051839;28;20478;-70